createdAt,value
2022-10-25T00:03:27.307Z,13.13
2022-10-25T00:08:31.610Z,13.08
2022-10-25T00:13:34.781Z,13.09
2022-10-25T00:18:37.694Z,12.94
2022-10-25T00:23:41.975Z,12.97
2022-10-25T00:28:45.163Z,12.86
2022-10-25T00:33:48.072Z,12.92
2022-10-25T00:38:52.792Z,12.96
2022-10-25T00:43:57.467Z,13.05
2022-10-25T00:49:04.241Z,13.01
2022-10-25T00:54:12.707Z,12.96
2022-10-25T00:59:19.919Z,13.10
2022-10-25T01:04:26.917Z,12.96
2022-10-25T01:09:33.256Z,13.00
2022-10-25T01:14:39.407Z,12.97
2022-10-25T01:20:05.269Z,12.91
2022-10-25T01:25:33.412Z,13.08
2022-10-25T01:31:10.032Z,13.09
2022-10-25T01:36:17.645Z,12.89
2022-10-25T01:41:26.529Z,12.77
2022-10-25T01:46:41.010Z,12.81
2022-10-25T01:51:43.968Z,12.73
2022-10-25T01:56:55.404Z,12.78
2022-10-25T02:02:08.530Z,12.85
2022-10-25T02:07:16.202Z,12.78
2022-10-25T02:12:26.364Z,12.73
2022-10-25T02:17:31.892Z,12.69
2022-10-25T02:22:35.922Z,12.76
2022-10-25T02:27:40.932Z,12.69
2022-10-25T02:32:45.269Z,12.63
2022-10-25T02:37:48.525Z,12.72
2022-10-25T02:42:51.655Z,12.68
2022-10-25T02:47:55.900Z,12.67
2022-10-25T02:52:58.798Z,12.64
2022-10-25T02:58:01.710Z,12.57
2022-10-25T03:03:06.289Z,12.61
2022-10-25T03:08:09.221Z,12.61
2022-10-25T03:13:12.124Z,12.64
2022-10-25T03:18:16.840Z,12.59
2022-10-25T03:23:19.957Z,12.51
2022-10-25T03:28:23.070Z,12.52
2022-10-25T03:33:28.258Z,12.66
2022-10-25T03:38:31.175Z,12.48
2022-10-25T03:43:34.105Z,12.41
2022-10-25T03:48:38.363Z,12.24
2022-10-25T03:53:41.255Z,12.22
2022-10-25T03:58:44.137Z,12.14
2022-10-25T04:03:48.375Z,12.02
2022-10-25T04:08:51.294Z,11.96
2022-10-25T04:13:54.232Z,11.91
2022-10-25T04:18:59.218Z,11.98
2022-10-25T04:24:04.403Z,11.91
2022-10-25T04:29:08.426Z,11.96
2022-10-25T04:34:12.889Z,12.06
2022-10-25T04:39:16.211Z,12.09
2022-10-25T04:44:19.119Z,11.93
2022-10-25T04:49:23.419Z,11.79
2022-10-25T04:54:26.344Z,11.69
2022-10-25T04:59:29.311Z,11.82
2022-10-25T05:04:33.620Z,11.65
2022-10-25T05:09:36.533Z,11.59
2022-10-25T05:14:39.501Z,11.64
2022-10-25T05:19:43.767Z,11.58
2022-10-25T05:24:46.680Z,11.52
2022-10-25T05:29:49.582Z,11.55
2022-10-25T05:34:53.840Z,11.58
2022-10-25T05:39:56.783Z,11.58
2022-10-25T05:44:59.680Z,11.59
2022-10-25T05:50:04.129Z,11.56
2022-10-25T05:55:07.568Z,11.61
2022-10-25T06:00:11.338Z,11.66
2022-10-25T06:05:15.888Z,11.57
2022-10-25T06:10:18.934Z,11.72
2022-10-25T06:15:21.837Z,11.67
2022-10-25T06:20:26.420Z,11.86
2022-10-25T06:25:29.461Z,11.82
2022-10-25T06:30:33.232Z,11.87
2022-10-25T06:35:37.511Z,12.20
2022-10-25T06:40:40.406Z,12.69
2022-10-25T06:45:43.670Z,12.91
2022-10-25T06:50:49.981Z,13.02
2022-10-25T06:55:55.079Z,13.26
2022-10-25T07:01:01.704Z,13.33
2022-10-25T07:06:08.047Z,13.25
2022-10-25T07:11:15.559Z,13.47
2022-10-25T07:16:20.656Z,13.50
2022-10-25T07:21:24.988Z,14.10
2022-10-25T07:26:30.858Z,14.04
2022-10-25T07:31:36.726Z,14.31
2022-10-25T07:36:41.220Z,14.32
2022-10-25T07:41:44.139Z,14.45
2022-10-25T07:46:47.424Z,14.63
2022-10-25T07:51:51.675Z,14.83
2022-10-25T07:56:54.563Z,15.20
2022-10-25T08:01:57.456Z,14.95
2022-10-25T08:07:02.376Z,14.68
2022-10-25T08:12:05.632Z,14.48
2022-10-25T08:17:08.703Z,14.25
2022-10-25T08:22:12.967Z,14.02
2022-10-25T08:27:15.874Z,13.92
2022-10-25T08:32:18.825Z,13.91
2022-10-25T08:37:23.248Z,14.80
2022-10-25T08:42:33.107Z,14.98
2022-10-25T08:47:39.789Z,15.27
2022-10-25T08:52:48.524Z,15.64
2022-10-25T08:57:53.506Z,15.89
2022-10-25T09:02:58.574Z,16.09
2022-10-25T09:08:16.477Z,16.11
2022-10-25T09:13:31.228Z,16.13
2022-10-25T09:18:42.475Z,16.13
2022-10-25T09:23:57.888Z,16.45
2022-10-25T09:29:05.539Z,16.73
2022-10-25T09:34:11.536Z,16.30
2022-10-25T09:39:22.391Z,15.38
2022-10-25T09:44:36.183Z,15.52
2022-10-25T09:49:44.837Z,15.54
2022-10-25T09:54:54.610Z,15.34
2022-10-25T09:59:57.841Z,15.09
2022-10-25T10:05:00.775Z,14.89
2022-10-25T10:10:09.608Z,14.93
2022-10-25T10:15:20.044Z,15.06
2022-10-25T10:20:23.059Z,14.99
2022-10-25T10:25:29.355Z,15.03
2022-10-25T10:30:32.968Z,14.97
2022-10-25T10:35:38.312Z,14.93
2022-10-25T10:40:44.733Z,15.04
2022-10-25T10:45:51.718Z,15.31
2022-10-25T10:50:54.762Z,15.34
2022-10-25T10:56:01.293Z,15.37
2022-10-25T11:01:07.312Z,15.61
2022-10-25T11:06:14.389Z,15.64
2022-10-25T11:11:20.749Z,15.71
2022-10-25T11:16:45.119Z,15.57
2022-10-25T11:22:18.249Z,15.69
2022-10-25T11:27:35.031Z,15.73
2022-10-25T11:33:10.947Z,15.41
2022-10-25T11:38:18.157Z,15.73
2022-10-25T11:43:48.472Z,15.45
2022-10-25T11:49:04.002Z,16.03
2022-10-25T11:54:31.369Z,15.78
2022-10-25T11:59:49.971Z,16.43
2022-10-25T12:05:04.681Z,16.61
2022-10-25T12:10:17.814Z,16.03
2022-10-25T12:15:25.458Z,15.83
2022-10-25T12:20:31.266Z,15.85
2022-10-25T12:25:38.580Z,15.56
2022-10-25T12:30:43.828Z,15.83
2022-10-25T12:35:51.091Z,15.92
2022-10-25T12:40:58.497Z,15.99
2022-10-25T12:46:39.872Z,16.14
2022-10-25T12:52:00.055Z,16.17
2022-10-25T12:57:14.729Z,16.17
2022-10-25T13:02:50.882Z,16.11
2022-10-25T13:07:57.740Z,16.22
2022-10-25T13:13:03.320Z,16.11
2022-10-25T13:18:27.417Z,16.64
2022-10-25T13:24:05.720Z,16.79
2022-10-25T13:29:41.734Z,16.90
2022-10-25T13:34:46.093Z,16.72
2022-10-25T13:39:55.314Z,16.37
2022-10-25T13:45:06.954Z,15.74
2022-10-25T13:55:23.374Z,15.77
2022-10-25T14:00:36.587Z,15.56
2022-10-25T14:06:29.649Z,15.53
2022-10-25T14:11:39.648Z,15.51
2022-10-25T14:16:54.701Z,15.38
2022-10-25T14:21:57.996Z,15.37
2022-10-25T14:27:02.629Z,15.26
2022-10-25T14:32:14.099Z,15.39
2022-10-25T14:37:17.081Z,15.37
2022-10-25T14:42:21.324Z,15.27
2022-10-25T14:47:29.366Z,15.26
2022-10-25T14:52:32.789Z,15.24
2022-10-25T14:57:37.467Z,15.09
2022-10-25T15:02:41.592Z,15.16
2022-10-25T15:07:47.039Z,15.06
2022-10-25T15:12:53.383Z,14.99
2022-10-25T15:17:56.663Z,14.74
2022-10-25T15:23:04.737Z,14.70
2022-10-25T15:28:13.474Z,14.52
2022-10-25T15:33:18.860Z,14.43
2022-10-25T15:38:21.827Z,14.39
2022-10-25T15:43:26.179Z,14.18
2022-10-25T15:48:29.460Z,14.07
2022-10-25T15:53:32.440Z,13.77
2022-10-25T15:58:36.756Z,13.71
2022-10-25T16:03:39.709Z,13.67
2022-10-25T16:08:42.920Z,13.57
2022-10-25T16:13:51.176Z,13.48
2022-10-25T16:18:54.763Z,13.17
2022-10-25T16:23:57.835Z,13.03
2022-10-25T16:29:02.104Z,12.99
2022-10-25T16:34:04.995Z,13.04
2022-10-25T16:39:08.886Z,12.94
2022-10-25T16:44:15.199Z,12.67
2022-10-25T16:49:18.130Z,12.58
2022-10-25T16:54:24.158Z,12.23
2022-10-25T16:59:28.653Z,12.10
2022-10-25T17:04:31.585Z,12.19
2022-10-25T17:09:34.459Z,12.11
2022-10-25T17:14:39.378Z,12.07
2022-10-25T17:19:42.377Z,11.92
2022-10-25T17:24:45.497Z,11.85
2022-10-25T17:29:49.742Z,11.68
2022-10-25T17:34:53.859Z,11.80
2022-10-25T17:39:56.772Z,11.83
2022-10-25T17:45:01.037Z,12.05
2022-10-25T17:50:04.414Z,12.03
2022-10-25T17:55:10.128Z,11.99
2022-10-25T18:00:15.852Z,11.88
2022-10-25T18:05:21.335Z,11.88
2022-10-25T18:10:24.562Z,11.83
2022-10-25T18:15:29.313Z,11.86
2022-10-25T18:20:32.440Z,11.65
2022-10-25T18:25:35.379Z,11.36
2022-10-25T18:30:39.647Z,11.43
2022-10-25T18:35:42.899Z,11.32
2022-10-25T18:40:45.875Z,11.23
2022-10-25T18:45:50.365Z,11.13
2022-10-25T18:50:53.595Z,11.03
2022-10-25T18:55:56.498Z,11.07
2022-10-25T19:01:08.443Z,10.62
2022-10-25T19:06:11.877Z,10.16
2022-10-25T19:11:16.265Z,10.45
2022-10-25T19:16:21.712Z,10.55
2022-10-25T19:21:24.729Z,10.45
2022-10-25T19:26:27.912Z,10.21
2022-10-25T19:31:32.320Z,10.08
2022-10-25T19:36:35.575Z,10.20
2022-10-25T19:41:38.584Z,10.15
2022-10-25T19:46:42.881Z,9.95
2022-10-25T19:51:45.862Z,9.68
2022-10-25T19:56:48.880Z,9.61
2022-10-25T20:01:53.256Z,9.52
2022-10-25T20:06:56.242Z,9.64
2022-10-25T20:11:59.192Z,9.88
2022-10-25T20:17:03.632Z,10.04
2022-10-25T20:22:06.901Z,10.13
2022-10-25T20:27:09.810Z,10.32
2022-10-25T20:32:15.015Z,10.30
2022-10-25T20:37:18.329Z,10.13
2022-10-25T20:42:21.220Z,9.38
2022-10-25T20:47:25.548Z,9.53
2022-10-25T20:52:28.435Z,9.87
2022-10-25T20:57:33.616Z,9.12
2022-10-25T21:02:38.245Z,9.76
2022-10-25T21:07:41.327Z,10.20
2022-10-25T21:12:44.289Z,10.24
2022-10-25T21:17:51.170Z,10.23
2022-10-25T21:22:54.201Z,10.28
2022-10-25T21:27:57.431Z,10.15
2022-10-25T21:33:01.713Z,9.97
2022-10-25T21:38:04.611Z,8.88
2022-10-25T21:43:07.516Z,9.53
2022-10-25T21:48:11.862Z,9.87
2022-10-25T21:53:15.267Z,10.01
2022-10-25T21:58:18.159Z,10.04
2022-10-25T22:03:24.285Z,10.11
2022-10-25T22:08:29.806Z,10.21
2022-10-25T22:13:32.934Z,10.17
2022-10-25T22:18:37.962Z,10.09
2022-10-25T22:23:41.159Z,9.98
2022-10-25T22:28:44.151Z,9.94
2022-10-25T22:33:48.640Z,9.63
2022-10-25T22:38:51.558Z,9.00
2022-10-25T22:43:55.173Z,8.62
2022-10-25T22:49:00.417Z,8.66
2022-10-25T22:54:04.524Z,8.73
2022-10-25T22:59:07.797Z,8.72
2022-10-25T23:04:12.560Z,8.27
2022-10-25T23:09:15.617Z,8.53
2022-10-25T23:14:18.528Z,8.19
2022-10-25T23:19:22.815Z,8.24
2022-10-25T23:24:25.859Z,8.28
2022-10-25T23:29:28.761Z,8.12
2022-10-25T23:34:34.268Z,7.97
2022-10-25T23:39:37.144Z,8.17
2022-10-25T23:44:40.025Z,8.21
2022-10-25T23:49:44.298Z,8.11
2022-10-25T23:54:47.183Z,7.87
2022-10-25T23:59:50.081Z,7.77
